createdAt,value
2018-09-17T00:02:47.943Z,13.44
2018-09-17T00:05:52.195Z,13.39
2018-09-17T00:08:56.313Z,13.34
2018-09-17T00:12:00.234Z,13.29
2018-09-17T00:15:04.510Z,13.23
2018-09-17T00:18:08.553Z,13.20
2018-09-17T00:21:12.499Z,13.20
2018-09-17T00:24:16.521Z,13.12
2018-09-17T00:27:20.418Z,13.09
2018-09-17T00:30:24.353Z,13.07
2018-09-17T00:33:28.475Z,13.06
2018-09-17T00:36:33.765Z,12.99
2018-09-17T00:39:37.693Z,12.97
2018-09-17T00:42:41.608Z,12.91
2018-09-17T00:45:45.885Z,12.89
2018-09-17T00:48:49.883Z,12.84
2018-09-17T00:51:53.786Z,12.80
2018-09-17T00:54:57.898Z,12.81
2018-09-17T00:58:01.913Z,12.76
2018-09-17T01:01:06.044Z,12.75
2018-09-17T01:04:10.264Z,12.74
2018-09-17T01:07:14.219Z,12.74
2018-09-17T01:10:18.585Z,12.72
2018-09-17T01:13:22.552Z,12.70
2018-09-17T01:16:26.477Z,12.69
2018-09-17T01:19:30.407Z,12.69
2018-09-17T01:22:34.406Z,12.65
2018-09-17T01:25:38.331Z,12.65
2018-09-17T01:28:42.242Z,12.64
2018-09-17T01:31:46.159Z,12.61
2018-09-17T01:34:50.098Z,12.63
2018-09-17T01:37:54.015Z,12.63
2018-09-17T01:40:58.258Z,12.59
2018-09-17T01:44:02.185Z,12.57
2018-09-17T01:47:06.170Z,12.55
2018-09-17T01:50:10.138Z,12.55
2018-09-17T01:53:14.121Z,12.51
2018-09-17T01:56:18.051Z,12.47
2018-09-17T01:59:21.973Z,12.45
2018-09-17T02:02:26.106Z,12.44
2018-09-17T02:05:30.242Z,12.41
2018-09-17T02:08:34.229Z,12.37
2018-09-17T02:11:38.276Z,12.36
2018-09-17T02:14:42.848Z,12.34
2018-09-17T02:17:46.816Z,12.31
2018-09-17T02:20:50.750Z,12.32
2018-09-17T02:23:54.834Z,12.30
2018-09-17T02:26:58.834Z,12.31
2018-09-17T02:30:02.766Z,12.29
2018-09-17T02:33:06.685Z,12.28
2018-09-17T02:36:10.607Z,12.26
2018-09-17T02:39:14.531Z,12.25
2018-09-17T02:42:18.466Z,12.19
2018-09-17T02:45:22.757Z,12.20
2018-09-17T02:48:26.768Z,12.22
2018-09-17T02:51:30.678Z,12.20
2018-09-17T02:54:34.935Z,12.18
2018-09-17T02:57:38.975Z,12.14
2018-09-17T03:00:43.207Z,12.15
2018-09-17T03:03:47.177Z,12.13
2018-09-17T03:06:51.267Z,12.15
2018-09-17T03:09:55.286Z,12.11
2018-09-17T03:12:59.203Z,12.06
2018-09-17T03:16:04.799Z,12.05
2018-09-17T03:19:08.873Z,11.99
2018-09-17T03:22:13.847Z,12.01
2018-09-17T03:25:17.838Z,12.00
2018-09-17T03:28:22.041Z,11.98
2018-09-17T03:31:25.978Z,11.95
2018-09-17T03:34:30.047Z,11.90
2018-09-17T03:37:33.997Z,11.88
2018-09-17T03:40:37.946Z,11.85
2018-09-17T03:43:43.419Z,11.86
2018-09-17T03:46:47.679Z,11.83
2018-09-17T03:49:51.981Z,11.80
2018-09-17T03:52:56.110Z,11.79
2018-09-17T03:56:00.309Z,11.76
2018-09-17T03:59:04.618Z,11.70
2018-09-17T04:02:08.544Z,11.66
2018-09-17T04:05:12.501Z,11.67
2018-09-17T04:08:16.451Z,11.63
2018-09-17T04:11:20.777Z,11.61
2018-09-17T04:14:24.707Z,11.56
2018-09-17T04:17:28.653Z,11.54
2018-09-17T04:20:32.579Z,11.54
2018-09-17T04:23:37.509Z,11.48
2018-09-17T04:26:41.760Z,11.48
2018-09-17T04:29:45.699Z,11.46
2018-09-17T04:32:49.949Z,11.44
2018-09-17T04:35:53.885Z,11.43
2018-09-17T04:38:57.841Z,11.41
2018-09-17T04:42:02.011Z,11.38
2018-09-17T04:45:06.058Z,11.34
2018-09-17T04:48:10.019Z,11.34
2018-09-17T04:51:14.218Z,11.31
2018-09-17T04:54:18.154Z,11.31
2018-09-17T04:57:22.117Z,11.29
2018-09-17T05:00:26.587Z,11.22
2018-09-17T05:03:30.846Z,11.20
2018-09-17T05:06:34.806Z,11.19
2018-09-17T05:09:38.753Z,11.15
2018-09-17T05:12:42.699Z,11.15
2018-09-17T05:15:46.635Z,11.15
2018-09-17T05:18:50.615Z,11.12
2018-09-17T05:21:54.561Z,11.12
2018-09-17T05:24:58.544Z,11.13
2018-09-17T05:28:02.507Z,11.15
2018-09-17T05:31:06.510Z,11.16
2018-09-17T05:34:10.447Z,11.12
2018-09-17T05:37:14.386Z,11.13
2018-09-17T05:40:18.458Z,11.13
2018-09-17T05:43:22.399Z,11.16
2018-09-17T05:46:26.330Z,11.17
2018-09-17T05:49:30.293Z,11.16
2018-09-17T05:52:34.218Z,11.15
2018-09-17T05:55:38.191Z,11.20
2018-09-17T05:58:42.185Z,11.20
2018-09-17T06:01:46.254Z,11.22
2018-09-17T06:04:50.214Z,11.30
2018-09-17T06:07:54.352Z,11.33
2018-09-17T06:10:58.842Z,11.40
2018-09-17T06:14:02.970Z,11.44
2018-09-17T06:17:07.230Z,11.47
2018-09-17T06:20:11.525Z,11.55
2018-09-17T06:23:15.519Z,11.60
2018-09-17T06:26:19.735Z,11.65
2018-09-17T06:29:23.678Z,11.72
2018-09-17T06:32:27.721Z,11.77
2018-09-17T06:35:31.663Z,11.84
2018-09-17T06:38:35.743Z,11.91
2018-09-17T06:41:39.718Z,11.96
2018-09-17T06:44:43.884Z,12.02
2018-09-17T06:47:47.963Z,12.08
2018-09-17T06:50:52.264Z,12.11
2018-09-17T06:53:56.547Z,12.17
2018-09-17T06:57:00.482Z,12.23
2018-09-17T07:00:04.927Z,12.28
2018-09-17T07:03:08.861Z,12.33
2018-09-17T07:06:12.829Z,12.38
2018-09-17T07:09:16.923Z,12.43
2018-09-17T07:12:20.849Z,12.47
2018-09-17T07:15:24.773Z,12.54
2018-09-17T07:18:29.011Z,12.58
2018-09-17T07:21:33.300Z,12.64
2018-09-17T07:24:37.218Z,12.69
2018-09-17T07:27:41.153Z,12.75
2018-09-17T07:30:45.076Z,12.83
2018-09-17T07:33:49.010Z,12.90
2018-09-17T07:36:52.955Z,12.96
2018-09-17T07:39:57.154Z,13.04
2018-09-17T07:43:01.083Z,13.11
2018-09-17T07:46:05.141Z,13.19
2018-09-17T07:49:09.359Z,13.26
2018-09-17T07:52:13.662Z,13.33
2018-09-17T07:55:17.608Z,13.38
2018-09-17T07:58:21.573Z,13.45
2018-09-17T08:01:25.506Z,13.52
2018-09-17T08:04:30.170Z,13.58
2018-09-17T08:07:34.122Z,13.64
2018-09-17T08:10:38.047Z,13.71
2018-09-17T08:13:42.199Z,13.78
2018-09-17T08:16:46.137Z,13.85
2018-09-17T08:19:50.094Z,13.92
2018-09-17T08:22:54.177Z,13.99
2018-09-17T08:25:58.158Z,14.06
2018-09-17T08:29:02.128Z,14.14
2018-09-17T08:32:06.078Z,14.23
2018-09-17T08:35:10.363Z,14.33
2018-09-17T08:38:14.434Z,14.41
2018-09-17T08:41:18.539Z,14.51
2018-09-17T08:44:22.474Z,14.62
2018-09-17T08:47:26.400Z,14.72
2018-09-17T08:50:30.341Z,14.82
2018-09-17T08:53:34.262Z,14.93
2018-09-17T08:56:43.641Z,15.04
2018-09-17T08:59:51.750Z,15.16
2018-09-17T09:03:01.178Z,15.27
2018-09-17T09:06:10.375Z,15.40
2018-09-17T09:09:14.288Z,15.52
2018-09-17T09:12:25.446Z,15.64
2018-09-17T09:15:35.889Z,15.78
2018-09-17T09:18:39.818Z,15.88
2018-09-17T09:21:43.814Z,15.98
2018-09-17T09:24:47.764Z,16.07
2018-09-17T09:27:51.765Z,16.16
2018-09-17T09:30:56.167Z,16.25
2018-09-17T09:34:00.314Z,16.36
2018-09-17T09:37:04.307Z,16.43
2018-09-17T09:40:08.296Z,16.51
2018-09-17T09:43:12.577Z,16.58
2018-09-17T09:46:16.663Z,16.64
2018-09-17T09:49:20.824Z,16.71
2018-09-17T09:52:24.881Z,16.79
2018-09-17T09:55:28.927Z,16.86
2018-09-17T09:58:33.002Z,16.93
2018-09-17T10:01:42.267Z,17.00
2018-09-17T10:04:46.562Z,17.06
2018-09-17T10:07:51.261Z,17.12
2018-09-17T10:11:00.571Z,17.18
2018-09-17T10:14:09.934Z,17.25
2018-09-17T10:17:19.191Z,17.30
2018-09-17T10:20:23.193Z,17.34
2018-09-17T10:23:27.199Z,17.40
2018-09-17T10:26:31.199Z,17.45
2018-09-17T10:29:35.170Z,17.50
2018-09-17T10:32:39.113Z,17.54
2018-09-17T10:35:43.298Z,17.61
2018-09-17T10:38:47.274Z,17.65
2018-09-17T10:41:51.305Z,17.69
2018-09-17T10:44:55.718Z,17.75
2018-09-17T10:47:59.734Z,17.80
2018-09-17T10:51:03.761Z,17.85
2018-09-17T10:54:07.751Z,17.89
2018-09-17T10:57:11.822Z,17.92
2018-09-17T11:00:15.892Z,17.96
2018-09-17T11:03:19.842Z,18.00
2018-09-17T11:06:23.793Z,18.05
2018-09-17T11:09:27.765Z,18.08
2018-09-17T11:12:31.766Z,18.12
2018-09-17T11:15:41.089Z,18.17
2018-09-17T11:18:45.083Z,18.22
2018-09-17T11:21:49.080Z,18.26
2018-09-17T11:24:53.251Z,18.30
2018-09-17T11:27:57.244Z,18.34
2018-09-17T11:31:01.290Z,18.39
2018-09-17T11:34:05.588Z,18.43
2018-09-17T11:37:09.854Z,18.46
2018-09-17T11:40:13.958Z,18.49
2018-09-17T11:43:17.968Z,18.54
2018-09-17T11:46:21.920Z,18.57
2018-09-17T11:49:25.899Z,18.61
2018-09-17T11:52:29.905Z,18.66
2018-09-17T11:55:34.159Z,18.72
2018-09-17T11:58:38.127Z,18.75
2018-09-17T12:01:47.535Z,18.79
2018-09-17T12:04:56.796Z,18.83
2018-09-17T12:08:00.959Z,18.89
2018-09-17T12:11:05.016Z,18.94
2018-09-17T12:14:09.495Z,18.99
2018-09-17T12:17:13.549Z,19.05
2018-09-17T12:20:17.511Z,19.10
2018-09-17T12:23:21.516Z,19.16
2018-09-17T12:26:25.460Z,19.23
2018-09-17T12:29:29.436Z,19.29
2018-09-17T12:32:33.440Z,19.35
2018-09-17T12:35:37.414Z,19.41
2018-09-17T12:38:41.376Z,19.47
2018-09-17T12:41:45.374Z,19.52
2018-09-17T12:44:49.769Z,19.59
2018-09-17T12:47:54.535Z,19.64
2018-09-17T12:50:58.587Z,19.70
2018-09-17T12:54:03.104Z,19.76
2018-09-17T12:57:07.131Z,19.83
2018-09-17T13:00:11.599Z,19.89
2018-09-17T13:03:15.601Z,19.94
2018-09-17T13:06:20.220Z,20.01
2018-09-17T13:09:24.214Z,20.08
2018-09-17T13:12:28.282Z,20.15
2018-09-17T13:15:32.263Z,20.21
2018-09-17T13:18:36.269Z,20.28
2018-09-17T13:21:40.219Z,20.36
2018-09-17T13:24:44.185Z,20.43
2018-09-17T13:27:48.403Z,20.50
2018-09-17T13:30:52.428Z,20.55
2018-09-17T13:33:56.403Z,20.59
2018-09-17T13:37:00.531Z,20.66
2018-09-17T13:40:04.658Z,20.70
2018-09-17T13:43:08.657Z,20.76
2018-09-17T13:46:12.648Z,20.79
2018-09-17T13:49:16.632Z,20.83
2018-09-17T13:52:20.828Z,20.86
2018-09-17T13:55:26.033Z,20.90
2018-09-17T13:58:30.032Z,20.93
2018-09-17T14:01:34.110Z,20.98
2018-09-17T14:04:38.277Z,21.01
2018-09-17T14:07:42.285Z,21.06
2018-09-17T14:10:46.514Z,21.10
2018-09-17T14:13:50.665Z,21.14
2018-09-17T14:16:54.666Z,21.17
2018-09-17T14:19:58.685Z,21.20
2018-09-17T14:23:02.826Z,21.21
2018-09-17T14:26:07.068Z,21.23
2018-09-17T14:29:11.225Z,21.23
2018-09-17T14:32:20.753Z,21.27
2018-09-17T14:35:25.011Z,21.31
2018-09-17T14:38:29.932Z,21.33
2018-09-17T14:41:39.597Z,21.36
2018-09-17T14:44:43.792Z,21.40
2018-09-17T14:47:47.777Z,21.41
2018-09-17T14:50:51.757Z,21.44
2018-09-17T14:53:56.133Z,21.46
2018-09-17T14:57:00.295Z,21.49
2018-09-17T15:00:04.727Z,21.50
2018-09-17T15:03:08.761Z,21.53
2018-09-17T15:06:12.763Z,21.56
2018-09-17T15:09:17.023Z,21.58
2018-09-17T15:12:21.175Z,21.60
2018-09-17T15:15:25.456Z,21.62
2018-09-17T15:18:29.616Z,21.63
2018-09-17T15:21:33.597Z,21.63
2018-09-17T15:24:37.920Z,21.63
2018-09-17T15:27:41.879Z,21.60
2018-09-17T15:30:46.240Z,21.60
2018-09-17T15:33:50.514Z,21.57
2018-09-17T15:36:54.771Z,21.55
2018-09-17T15:39:59.347Z,21.53
2018-09-17T15:43:03.674Z,21.50
2018-09-17T15:46:07.932Z,21.46
2018-09-17T15:49:12.055Z,21.44
2018-09-17T15:52:16.141Z,21.42
2018-09-17T15:55:20.449Z,21.39
2018-09-17T15:58:24.449Z,21.36
2018-09-17T16:01:29.272Z,21.33
2018-09-17T16:04:33.290Z,21.29
2018-09-17T16:07:37.587Z,21.25
2018-09-17T16:10:41.947Z,21.22
2018-09-17T16:13:45.867Z,21.19
2018-09-17T16:16:49.868Z,21.16
2018-09-17T16:19:53.933Z,21.11
2018-09-17T16:22:58.124Z,21.07
2018-09-17T16:26:02.098Z,21.02
2018-09-17T16:29:06.219Z,20.98
2018-09-17T16:32:10.152Z,20.93
2018-09-17T16:35:14.212Z,20.88
2018-09-17T16:38:18.583Z,20.83
2018-09-17T16:41:22.567Z,20.79
2018-09-17T16:44:26.589Z,20.72
2018-09-17T16:47:31.601Z,20.66
2018-09-17T16:50:35.602Z,20.59
2018-09-17T16:53:39.902Z,20.51
2018-09-17T16:56:44.007Z,20.44
2018-09-17T16:59:48.230Z,20.37
2018-09-17T17:02:52.630Z,20.30
2018-09-17T17:05:57.872Z,20.22
2018-09-17T17:09:01.979Z,20.15
2018-09-17T17:12:06.105Z,20.07
2018-09-17T17:15:12.623Z,19.99
2018-09-17T17:18:17.855Z,19.92
2018-09-17T17:21:21.895Z,19.84
2018-09-17T17:24:26.260Z,19.76
2018-09-17T17:27:30.579Z,19.67
2018-09-17T17:30:34.845Z,19.58
2018-09-17T17:37:28.705Z,19.41
2018-09-17T17:40:33.176Z,19.32
2018-09-17T17:43:37.548Z,19.23
2018-09-17T17:46:41.695Z,19.17
2018-09-17T17:49:45.688Z,19.09
2018-09-17T17:52:49.813Z,19.01
2018-09-17T17:55:54.747Z,18.93
2018-09-17T17:58:58.942Z,18.85
2018-09-17T18:02:03.501Z,18.78
2018-09-17T18:05:08.160Z,18.71
2018-09-17T18:08:12.188Z,18.63
2018-09-17T18:11:16.311Z,18.55
2018-09-17T18:14:22.648Z,18.48
2018-09-17T18:17:26.658Z,18.41
2018-09-17T18:20:30.793Z,18.33
2018-09-17T18:23:35.243Z,18.25
2018-09-17T18:26:39.450Z,18.18
2018-09-17T18:29:43.786Z,18.10
2018-09-17T18:32:48.061Z,18.01
2018-09-17T18:35:52.596Z,17.93
2018-09-17T18:38:56.861Z,17.86
2018-09-17T18:42:01.066Z,17.79
2018-09-17T18:45:05.119Z,17.72
2018-09-17T18:48:09.616Z,17.65
2018-09-17T18:51:13.969Z,17.59
2018-09-17T18:54:18.711Z,17.54
2018-09-17T18:57:23.286Z,17.48
2018-09-17T19:00:27.591Z,17.40
2018-09-17T19:03:32.000Z,17.35
2018-09-17T19:06:35.965Z,17.28
2018-09-17T19:09:45.463Z,17.22
2018-09-17T19:12:49.642Z,17.15
2018-09-17T19:15:55.776Z,17.09
2018-09-17T19:18:59.934Z,17.03
2018-09-17T19:22:09.405Z,16.96
2018-09-17T19:25:15.316Z,16.93
2018-09-17T19:28:24.802Z,16.87
2018-09-17T19:31:29.117Z,16.81
2018-09-17T19:34:34.918Z,16.73
2018-09-17T19:37:44.675Z,16.68
2018-09-17T19:40:49.288Z,16.63
2018-09-17T19:43:53.733Z,16.58
2018-09-17T19:46:58.446Z,16.52
2018-09-17T19:50:06.766Z,16.46
2018-09-17T19:53:10.934Z,16.40
2018-09-17T19:56:16.263Z,16.33
2018-09-17T19:59:26.259Z,16.28
2018-09-17T20:02:30.324Z,16.23
2018-09-17T20:05:39.945Z,16.17
2018-09-17T20:08:45.343Z,16.12
2018-09-17T20:11:55.675Z,16.05
2018-09-17T20:15:00.345Z,16.01
2018-09-17T20:18:04.705Z,15.93
2018-09-17T20:21:09.132Z,15.88
2018-09-17T20:24:13.636Z,15.82
2018-09-17T20:27:20.485Z,15.77
2018-09-17T20:30:24.915Z,15.72
2018-09-17T20:33:32.081Z,15.59
2018-09-17T20:36:36.086Z,15.39
2018-09-17T20:39:40.416Z,15.22
2018-09-17T20:42:44.606Z,15.05
2018-09-17T20:45:49.213Z,14.93
2018-09-17T20:48:54.287Z,14.78
2018-09-17T20:51:58.525Z,14.68
2018-09-17T20:55:02.868Z,14.58
2018-09-17T20:58:08.576Z,14.53
2018-09-17T21:01:12.746Z,14.43
2018-09-17T21:04:16.918Z,14.34
2018-09-17T21:07:21.388Z,14.27
2018-09-17T21:10:25.487Z,14.20
2018-09-17T21:13:29.685Z,14.16
2018-09-17T21:16:33.904Z,14.09
2018-09-17T21:19:38.608Z,13.98
2018-09-17T21:22:42.573Z,13.94
2018-09-17T21:25:46.679Z,13.87
2018-09-17T21:28:51.054Z,13.84
2018-09-17T21:31:55.207Z,13.81
2018-09-17T21:34:59.304Z,13.77
2018-09-17T21:38:03.545Z,13.77
2018-09-17T21:41:07.534Z,13.76
2018-09-17T21:44:12.174Z,13.70
2018-09-17T21:47:16.163Z,13.68
2018-09-17T21:50:20.282Z,13.62
2018-09-17T21:53:24.295Z,13.57
2018-09-17T21:56:29.044Z,13.52
2018-09-17T21:59:33.115Z,13.51
2018-09-17T22:02:37.207Z,13.47
2018-09-17T22:05:41.543Z,13.49
2018-09-17T22:08:45.551Z,13.47
2018-09-17T22:11:49.585Z,13.43
2018-09-17T22:14:53.609Z,13.43
2018-09-17T22:17:57.623Z,13.36
2018-09-17T22:21:02.114Z,13.36
2018-09-17T22:24:06.575Z,13.35
2018-09-17T22:27:12.673Z,13.32
2018-09-17T22:30:16.654Z,13.26
2018-09-17T22:33:20.848Z,13.28
2018-09-17T22:36:25.065Z,13.25
2018-09-17T22:39:29.466Z,13.23
2018-09-17T22:42:33.830Z,13.20
2018-09-17T22:45:37.876Z,13.18
2018-09-17T22:48:42.055Z,13.16
2018-09-17T22:51:46.067Z,13.12
2018-09-17T22:54:50.334Z,13.09
2018-09-17T22:57:54.714Z,13.07
2018-09-17T23:00:59.047Z,13.02
2018-09-17T23:04:03.365Z,13.00
2018-09-17T23:07:07.398Z,12.97
2018-09-17T23:10:11.911Z,12.96
2018-09-17T23:13:15.912Z,12.91
2018-09-17T23:16:20.195Z,12.87
2018-09-17T23:19:24.958Z,12.82
2018-09-17T23:22:29.125Z,12.78
2018-09-17T23:25:33.127Z,12.75
2018-09-17T23:28:38.236Z,12.72
2018-09-17T23:31:42.589Z,12.70
2018-09-17T23:34:46.728Z,12.67
2018-09-17T23:37:50.752Z,12.67
2018-09-17T23:40:55.155Z,12.65
2018-09-17T23:43:59.324Z,12.64
2018-09-17T23:47:03.895Z,12.60
2018-09-17T23:50:08.482Z,12.61
2018-09-17T23:53:12.619Z,12.54
2018-09-17T23:56:16.561Z,12.52
2018-09-17T23:59:20.543Z,12.53
